Jackson, TN (38305)

8:41 AM CDT on May 25, 2015 (GMT -0500)
North Park | | Change Station
CLOSE
Current Station
Personal Weather Station
Location: Jackson, TN
Elevation: 423 ft
Nearby Weather Stations

Elev 423 ft 35.71 °N, 88.82 °W | Updated 1 minute ago

Overcast
Overcast
69.4 °F
Feels Like 69.4 °F
N
3.0
Wind Variable Wind from South
Gusts 7.0 mph

Today
High -- | Low -- °F
--% Chance of Precip.
Yesterday
High -- | Low -- °F
Precip. -- in
5:43 AM 8:00 PM
Waxing Crescent, 48% visible
Pressure 30.09 in
Visibility 10.0 miles
Clouds Overcast 6000 ft
Dew Point 68 °F
Humidity 96%
Rainfall 0.43 in
Snow Depth Not available.
UV 1 out of 12
Pollen .70 out of 12
Air Quality Not available.
Flu Activity Sporadic
METAR KMKL 251253Z 16004KT 10SM OVC060 21/19 A3009 RMK AO2 RAE38 SLP187 P0002 T02060189

More Conditions Fewer Conditions

Pressure 30.09 in
Visibility 10.0 miles
Clouds Overcast 6000 ft
Dew Point 68 °F
Humidity 96%
Rainfall 0.43 in
Snow Depth Not available.
UV 1 out of 12
Pollen .70 out of 12
Air Quality Not available.
Flu Activity Sporadic
METAR KMKL 251253Z 16004KT 10SM OVC060 21/19 A3009 RMK AO2 RAE38 SLP187 P0002 T02060189

More Conditions Fewer Conditions

10-Day Weather Forecast

Almanac

Astronomy

May. 25, 2015 Rise Set
Actual Time
Civil Twilight
Nautical Twilight
Astronomical Twilight
Moon
Length of Visible Light
Length of Day
Tomorrow will be .
, % of the Moon is Illuminated

Today's Extremes

State Highs State Lows

Community

WunderPhotos

Upload Photos

1,824,009 photos uploaded!

WunderBlogs® & News

Nearby

Air Quality

  Air Quality AQ Index Pollutant
Not available.

Snow Depth

Station Depth Elevation

Earthquake Activity

City Distance Mag. Time & Date
Minimum magnitude displayed is 2.5.

Coastal Water Temperatures

Place Temperature

Stations

Nearby Weather Stations

Station Location Temp. Windchill Dew Point Humidity Wind Precip. Elev Updated Type